createdAt,value
2022-11-10T00:01:11.855Z,19.20
2022-11-10T00:03:40.836Z,19.20
2022-11-10T00:06:10.588Z,19.10
2022-11-10T00:08:38.675Z,19.20
2022-11-10T00:11:07.426Z,19.20
2022-11-10T00:13:57.118Z,19.20
2022-11-10T00:16:44.070Z,19.10
2022-11-10T00:19:12.276Z,19.10
2022-11-10T00:21:40.334Z,19.20
2022-11-10T00:24:08.727Z,19.10
2022-11-10T00:26:36.811Z,19.00
2022-11-10T00:29:05.414Z,19.10
2022-11-10T00:31:34.886Z,19.00
2022-11-10T00:34:02.933Z,19.10
2022-11-10T00:36:31.689Z,19.00
2022-11-10T00:38:59.728Z,19.20
2022-11-10T00:41:27.798Z,19.00
2022-11-10T00:43:56.150Z,19.30
2022-11-10T00:46:24.348Z,19.00
2022-11-10T00:48:53.899Z,19.00
2022-11-10T00:51:24.330Z,18.80
2022-11-10T00:53:53.055Z,18.90
2022-11-10T00:56:22.234Z,18.50
2022-11-10T00:58:50.933Z,19.10
2022-11-10T01:01:20.382Z,18.60
2022-11-10T01:03:48.531Z,18.50
2022-11-10T01:06:19.580Z,18.90
2022-11-10T01:08:48.352Z,18.90
2022-11-10T01:11:18.591Z,18.80
2022-11-10T01:13:47.002Z,18.90
2022-11-10T01:16:17.394Z,18.80
2022-11-10T01:18:49.844Z,18.80
2022-11-10T01:21:19.571Z,18.70
2022-11-10T01:23:48.067Z,18.80
2022-11-10T01:26:16.778Z,18.70
2022-11-10T01:28:45.167Z,18.70
2022-11-10T01:31:16.146Z,18.80
2022-11-10T01:33:44.348Z,18.90
2022-11-10T01:36:13.671Z,18.70
2022-11-10T01:38:44.033Z,18.70
2022-11-10T01:41:14.855Z,18.80
2022-11-10T01:43:43.482Z,18.60
2022-11-10T01:46:12.847Z,18.80
2022-11-10T01:48:45.200Z,18.70
2022-11-10T01:51:18.284Z,18.70
2022-11-10T01:53:54.736Z,18.70
2022-11-10T01:56:23.534Z,18.30
2022-11-10T01:58:56.381Z,18.50
2022-11-10T02:01:25.535Z,18.80
2022-11-10T02:03:57.406Z,18.00
2022-11-10T02:06:28.577Z,18.70
2022-11-10T02:08:59.422Z,18.80
2022-11-10T02:11:29.015Z,18.40
2022-11-10T02:13:57.788Z,18.60
2022-11-10T02:16:26.060Z,18.40
2022-11-10T02:18:54.375Z,18.40
2022-11-10T02:21:23.834Z,18.20
2022-11-10T02:23:53.626Z,18.50
2022-11-10T02:26:25.022Z,18.50
2022-11-10T02:28:53.095Z,18.50
2022-11-10T02:33:49.569Z,18.30
2022-11-10T02:36:17.628Z,18.40
2022-11-10T02:38:47.070Z,18.50
2022-11-10T02:41:15.135Z,18.50
2022-11-10T02:43:43.403Z,18.60
2022-11-10T02:46:11.426Z,18.50
2022-11-10T02:48:39.519Z,18.00
2022-11-10T02:51:07.802Z,18.90
2022-11-10T02:53:35.868Z,18.90
2022-11-10T02:56:05.578Z,18.40
2022-11-10T02:58:33.641Z,18.60
2022-11-10T03:01:05.724Z,17.70
2022-11-10T03:03:34.127Z,18.80
2022-11-10T03:06:02.292Z,18.60
2022-11-10T03:08:30.358Z,18.10
2022-11-10T03:10:58.666Z,18.40
2022-11-10T03:13:40.201Z,18.20
2022-11-10T03:16:16.264Z,18.50
2022-11-10T03:18:44.352Z,18.20
2022-11-10T03:21:12.401Z,18.20
2022-11-10T03:23:40.470Z,18.20
2022-11-10T03:26:09.106Z,18.30
2022-11-10T03:28:38.578Z,18.30
2022-11-10T03:31:07.088Z,18.10
2022-11-10T03:33:35.658Z,18.30
2022-11-10T03:36:03.719Z,18.30
2022-11-10T03:38:31.817Z,18.10
2022-11-10T03:43:49.752Z,18.10
2022-11-10T03:46:17.941Z,18.20
2022-11-10T03:48:51.842Z,17.60
2022-11-10T03:51:21.247Z,18.10
2022-11-10T03:53:49.390Z,18.10
2022-11-10T03:56:17.896Z,18.40
2022-11-10T03:58:45.967Z,18.40
2022-11-10T04:01:15.485Z,18.00
2022-11-10T04:03:47.469Z,18.00
2022-11-10T04:06:35.846Z,18.40
2022-11-10T04:09:04.287Z,18.20
2022-11-10T04:11:50.717Z,18.20
2022-11-10T04:14:36.181Z,18.30
2022-11-10T04:17:05.667Z,18.00
2022-11-10T04:19:33.971Z,18.00
2022-11-10T04:22:02.017Z,17.90
2022-11-10T04:24:30.073Z,18.00
2022-11-10T04:26:58.110Z,17.90
2022-11-10T04:29:26.183Z,17.90
2022-11-10T04:31:54.262Z,18.20
2022-11-10T04:34:23.699Z,17.90
2022-11-10T04:36:51.746Z,17.90
2022-11-10T04:39:19.806Z,17.90
2022-11-10T04:41:48.771Z,17.90
2022-11-10T04:44:16.858Z,17.90
2022-11-10T04:46:45.513Z,17.90
2022-11-10T04:49:13.631Z,18.00
2022-11-10T04:51:43.043Z,18.00
2022-11-10T04:54:12.620Z,18.00
2022-11-10T04:56:41.356Z,17.90
2022-11-10T04:59:09.513Z,17.90
2022-11-10T05:01:37.568Z,17.90
2022-11-10T05:04:06.127Z,18.00
2022-11-10T05:06:34.300Z,17.90
2022-11-10T05:09:03.874Z,17.80
2022-11-10T05:11:31.926Z,17.80
2022-11-10T05:13:59.994Z,18.00
2022-11-10T05:16:28.110Z,17.70
2022-11-10T05:18:58.330Z,17.60
2022-11-10T05:21:26.483Z,18.20
2022-11-10T05:23:54.541Z,17.50
2022-11-10T05:26:24.156Z,17.60
2022-11-10T05:28:52.270Z,17.80
2022-11-10T05:31:20.316Z,18.00
2022-11-10T05:33:48.399Z,17.80
2022-11-10T05:36:16.492Z,18.10
2022-11-10T05:38:44.562Z,17.70
2022-11-10T05:41:13.056Z,18.10
2022-11-10T05:43:42.522Z,17.50
2022-11-10T05:46:10.655Z,17.70
2022-11-10T05:48:38.737Z,17.70
2022-11-10T05:51:07.064Z,17.50
2022-11-10T05:53:35.195Z,17.70
2022-11-10T05:56:03.230Z,17.60
2022-11-10T05:58:31.573Z,17.60
2022-11-10T06:01:01.081Z,17.60
2022-11-10T06:03:29.240Z,17.60
2022-11-10T06:05:57.917Z,17.60
2022-11-10T06:08:25.995Z,18.10
2022-11-10T06:10:54.636Z,17.60
2022-11-10T06:13:23.028Z,17.60
2022-11-10T06:15:51.308Z,17.60
2022-11-10T06:18:20.835Z,17.60
2022-11-10T06:20:49.081Z,17.60
2022-11-10T06:23:17.192Z,17.50
2022-11-10T06:25:45.690Z,17.50
2022-11-10T06:28:14.859Z,17.50
2022-11-10T06:30:43.041Z,17.50
2022-11-10T06:33:11.191Z,17.60
2022-11-10T06:35:40.605Z,17.70
2022-11-10T06:38:11.263Z,17.70
2022-11-10T06:40:39.607Z,17.70
2022-11-10T06:43:07.718Z,17.60
2022-11-10T06:45:35.763Z,17.60
2022-11-10T06:48:06.111Z,17.70
2022-11-10T06:53:04.135Z,17.90
2022-11-10T06:55:32.708Z,19.10
2022-11-10T06:58:00.940Z,18.20
2022-11-10T07:00:30.249Z,18.20
2022-11-10T07:03:02.625Z,18.30
2022-11-10T07:05:31.079Z,18.20
2022-11-10T07:08:05.334Z,18.20
2022-11-10T07:10:33.966Z,18.20
2022-11-10T07:13:03.695Z,18.20
2022-11-10T07:15:33.603Z,18.20
2022-11-10T07:18:02.623Z,18.20
2022-11-10T07:20:30.800Z,18.30
2022-11-10T07:23:00.385Z,18.30
2022-11-10T07:25:30.798Z,18.20
2022-11-10T07:28:00.497Z,18.20
2022-11-10T07:30:29.406Z,18.10
2022-11-10T07:33:01.995Z,18.20
2022-11-10T07:35:30.655Z,18.30
2022-11-10T07:37:59.827Z,18.50
2022-11-10T07:40:29.468Z,19.20
2022-11-10T07:42:57.518Z,18.60
2022-11-10T07:45:26.007Z,18.40
2022-11-10T07:47:58.873Z,18.50
2022-11-10T07:50:27.220Z,18.60
2022-11-10T07:53:04.046Z,18.40
2022-11-10T07:55:33.547Z,19.20
2022-11-10T07:58:01.626Z,18.50
2022-11-10T08:00:29.855Z,19.00
2022-11-10T08:03:02.932Z,18.90
2022-11-10T08:05:31.573Z,18.60
2022-11-10T08:08:00.158Z,18.90
2022-11-10T08:10:28.685Z,19.00
2022-11-10T08:12:59.418Z,19.10
2022-11-10T08:15:29.265Z,19.10
2022-11-10T08:18:00.206Z,19.20
2022-11-10T08:20:28.588Z,19.40
2022-11-10T08:23:00.675Z,19.20
2022-11-10T08:25:34.435Z,19.60
2022-11-10T08:28:07.026Z,19.60
2022-11-10T08:30:37.299Z,19.70
2022-11-10T08:33:07.278Z,19.50
2022-11-10T08:35:36.358Z,19.80
2022-11-10T08:38:09.783Z,19.40
2022-11-10T08:40:38.326Z,19.80
2022-11-10T08:43:08.716Z,19.90
2022-11-10T08:45:37.411Z,19.90
2022-11-10T08:48:07.994Z,20.70
2022-11-10T08:50:36.321Z,20.60
2022-11-10T08:53:05.518Z,20.90
2022-11-10T08:55:33.785Z,21.10
2022-11-10T08:58:03.130Z,20.60
2022-11-10T09:00:33.507Z,21.00
2022-11-10T09:03:06.810Z,21.20
2022-11-10T09:05:35.952Z,21.50
2022-11-10T09:08:05.483Z,21.80
2022-11-10T09:10:33.716Z,22.00
2022-11-10T09:13:02.702Z,22.60
2022-11-10T09:15:33.489Z,22.50
2022-11-10T09:18:02.581Z,22.70
2022-11-10T09:20:32.745Z,23.00
2022-11-10T09:23:05.874Z,22.70
2022-11-10T09:25:34.039Z,22.90
2022-11-10T09:28:02.319Z,23.00
2022-11-10T09:30:34.557Z,23.10
2022-11-10T09:33:02.613Z,23.90
2022-11-10T09:35:30.790Z,24.10
2022-11-10T09:37:58.909Z,24.20
2022-11-10T09:40:34.312Z,24.40
2022-11-10T09:43:03.977Z,24.20
2022-11-10T09:45:39.507Z,25.30
2022-11-10T09:48:14.977Z,24.40
2022-11-10T09:50:47.247Z,24.60
2022-11-10T09:53:18.810Z,25.00
2022-11-10T09:55:50.313Z,25.00
2022-11-10T09:58:19.509Z,25.60
2022-11-10T10:00:59.074Z,26.10
2022-11-10T10:03:32.239Z,25.70
2022-11-10T10:06:10.263Z,26.30
2022-11-10T10:08:50.596Z,25.50
2022-11-10T10:11:28.300Z,25.10
2022-11-10T10:14:11.942Z,26.00
2022-11-10T10:16:50.033Z,25.60
2022-11-10T10:19:27.167Z,26.20
2022-11-10T10:22:16.012Z,26.40
2022-11-10T10:24:44.173Z,27.60
2022-11-10T10:27:17.045Z,28.40
2022-11-10T10:29:46.864Z,27.60
2022-11-10T10:32:16.713Z,27.70
2022-11-10T10:34:45.702Z,29.00
2022-11-10T10:37:25.197Z,29.00
2022-11-10T10:39:55.958Z,29.30
2022-11-10T10:42:31.854Z,30.00
2022-11-10T10:45:21.010Z,30.40
2022-11-10T10:47:53.151Z,30.90
2022-11-10T10:50:24.963Z,31.20
2022-11-10T10:53:13.178Z,30.70
2022-11-10T10:55:48.138Z,31.00
2022-11-10T10:58:26.611Z,31.00
2022-11-10T11:01:00.337Z,30.80
2022-11-10T11:03:31.850Z,30.80
2022-11-10T11:06:05.913Z,30.00
2022-11-10T11:08:34.210Z,29.30
2022-11-10T11:11:10.723Z,28.10
2022-11-10T11:13:39.273Z,28.70
2022-11-10T11:16:12.201Z,29.70
2022-11-10T11:18:42.774Z,29.10
2022-11-10T11:21:24.910Z,30.30
2022-11-10T11:24:10.274Z,31.20
2022-11-10T11:26:48.767Z,31.00
2022-11-10T11:29:36.426Z,31.10
2022-11-10T11:32:21.197Z,30.60
2022-11-10T11:35:01.261Z,30.30
2022-11-10T11:37:37.210Z,29.60
2022-11-10T11:40:22.948Z,30.00
2022-11-10T11:43:02.146Z,29.40
2022-11-10T11:45:42.953Z,28.80
2022-11-10T11:48:34.992Z,29.10
2022-11-10T11:51:11.975Z,28.80
2022-11-10T11:54:03.732Z,28.00
2022-11-10T11:56:34.136Z,27.60
2022-11-10T11:59:20.451Z,27.90
2022-11-10T12:02:04.790Z,28.70
2022-11-10T12:04:46.644Z,28.60
2022-11-10T12:07:35.650Z,29.20
2022-11-10T12:10:13.314Z,29.60
2022-11-10T12:13:10.478Z,30.00
2022-11-10T12:15:46.540Z,30.60
2022-11-10T12:18:29.394Z,30.20
2022-11-10T12:21:06.217Z,30.00
2022-11-10T12:23:48.857Z,29.50
2022-11-10T12:26:28.044Z,29.90
2022-11-10T12:29:05.988Z,30.40
2022-11-10T12:31:38.148Z,30.20
2022-11-10T12:34:11.517Z,30.00
2022-11-10T12:36:40.095Z,29.60
2022-11-10T12:39:18.885Z,29.60
2022-11-10T12:41:51.190Z,29.70
2022-11-10T12:44:26.859Z,29.70
2022-11-10T12:46:58.748Z,29.50
2022-11-10T12:49:32.030Z,29.30
2022-11-10T12:52:08.450Z,29.60
2022-11-10T12:54:39.428Z,30.50
2022-11-10T12:57:12.056Z,29.80
2022-11-10T12:59:42.107Z,31.70
2022-11-10T13:02:23.690Z,30.80
2022-11-10T13:05:19.476Z,32.10
2022-11-10T13:07:51.048Z,31.70
2022-11-10T13:10:26.871Z,31.30
2022-11-10T13:13:07.526Z,30.40
2022-11-10T13:15:54.234Z,30.30
2022-11-10T13:19:01.052Z,29.70
2022-11-10T13:22:06.387Z,28.80
2022-11-10T13:24:36.094Z,28.40
2022-11-10T13:27:06.944Z,28.70
2022-11-10T13:29:55.832Z,28.60
2022-11-10T13:32:27.298Z,28.90
2022-11-10T13:34:56.300Z,29.10
2022-11-10T13:37:50.712Z,29.20
2022-11-10T13:40:29.578Z,29.60
2022-11-10T13:43:27.411Z,29.90
2022-11-10T13:46:06.603Z,30.00
2022-11-10T13:48:48.411Z,30.20
2022-11-10T13:51:29.011Z,30.20
2022-11-10T13:54:08.841Z,30.40
2022-11-10T13:57:01.093Z,30.60
2022-11-10T13:59:34.140Z,31.50
2022-11-10T14:02:48.307Z,33.10
2022-11-10T14:06:03.380Z,34.40
2022-11-10T14:08:39.226Z,35.80
2022-11-10T14:11:15.062Z,36.70
2022-11-10T14:13:46.490Z,37.20
2022-11-10T14:16:20.000Z,37.40
2022-11-10T14:18:54.303Z,36.70
2022-11-10T14:21:27.579Z,33.90
2022-11-10T14:24:01.282Z,32.00
2022-11-10T14:26:35.908Z,30.90
2022-11-10T14:29:38.554Z,30.20
2022-11-10T14:32:16.199Z,29.50
2022-11-10T14:34:48.786Z,29.10
2022-11-10T14:37:22.824Z,28.80
2022-11-10T14:39:53.916Z,28.50
2022-11-10T14:42:24.874Z,28.20
2022-11-10T14:45:07.130Z,28.00
2022-11-10T14:47:37.695Z,27.80
2022-11-10T14:50:08.641Z,27.60
2022-11-10T14:52:40.997Z,27.40
2022-11-10T14:55:14.340Z,27.30
2022-11-10T14:57:42.680Z,27.10
2022-11-10T15:00:18.216Z,26.90
2022-11-10T15:02:47.936Z,27.00
2022-11-10T15:05:16.787Z,26.80
2022-11-10T15:07:46.178Z,26.20
2022-11-10T15:10:21.028Z,26.50
2022-11-10T15:13:04.079Z,26.60
2022-11-10T15:15:32.446Z,25.70
2022-11-10T15:18:01.919Z,25.50
2022-11-10T15:20:36.120Z,25.10
2022-11-10T15:23:07.593Z,25.10
2022-11-10T15:25:38.625Z,25.50
2022-11-10T15:28:22.616Z,25.00
2022-11-10T15:30:53.471Z,25.70
2022-11-10T15:33:28.025Z,24.80
2022-11-10T15:35:57.991Z,24.70
2022-11-10T15:41:22.861Z,25.30
2022-11-10T15:46:27.018Z,24.60
2022-11-10T15:48:56.468Z,24.30
2022-11-10T15:51:26.522Z,24.30
2022-11-10T15:53:55.446Z,23.90
2022-11-10T15:56:25.412Z,24.60
2022-11-10T15:59:00.671Z,24.80
2022-11-10T16:01:30.349Z,24.00
2022-11-10T16:03:59.853Z,24.30
2022-11-10T16:06:30.412Z,24.30
2022-11-10T16:11:27.492Z,23.60
2022-11-10T16:13:56.797Z,23.50
2022-11-10T16:16:24.976Z,23.50
2022-11-10T16:18:53.162Z,23.30
2022-11-10T16:21:24.906Z,24.00
2022-11-10T16:23:53.970Z,23.00
2022-11-10T16:26:24.749Z,23.40
2022-11-10T16:28:53.123Z,23.20
2022-11-10T16:31:22.994Z,23.00
2022-11-10T16:33:51.226Z,23.10
2022-11-10T16:36:25.808Z,23.20
2022-11-10T16:38:54.795Z,22.90
2022-11-10T16:41:23.298Z,23.40
2022-11-10T16:43:51.372Z,22.60
2022-11-10T16:46:22.844Z,22.90
2022-11-10T16:48:52.076Z,22.80
2022-11-10T16:51:23.139Z,22.70
2022-11-10T16:53:54.270Z,22.20
2022-11-10T16:56:23.161Z,22.50
2022-11-10T16:58:51.248Z,22.30
2022-11-10T17:01:22.671Z,22.90
2022-11-10T17:03:54.175Z,22.20
2022-11-10T17:06:24.351Z,22.90
2022-11-10T17:08:55.392Z,22.70
2022-11-10T17:11:24.110Z,22.90
2022-11-10T17:13:52.194Z,22.40
2022-11-10T17:16:26.945Z,22.80
2022-11-10T17:18:56.561Z,25.50
2022-11-10T17:21:28.597Z,22.00
2022-11-10T17:24:02.807Z,22.20
2022-11-10T17:26:31.818Z,21.90
2022-11-10T17:28:59.935Z,22.60
2022-11-10T17:31:28.043Z,22.20
2022-11-10T17:33:56.138Z,22.40
2022-11-10T17:36:25.110Z,22.70
2022-11-10T17:38:53.657Z,22.30
2022-11-10T17:41:23.173Z,22.30
2022-11-10T17:43:51.248Z,22.60
2022-11-10T17:46:19.363Z,22.40
2022-11-10T17:48:47.908Z,22.30
2022-11-10T17:53:47.206Z,22.60
2022-11-10T17:58:45.223Z,22.20
2022-11-10T18:01:22.110Z,22.50
2022-11-10T18:03:50.967Z,22.30
2022-11-10T18:08:48.707Z,22.70
2022-11-10T18:11:18.825Z,22.80
2022-11-10T18:13:48.431Z,22.50
2022-11-10T18:16:16.672Z,22.60
2022-11-10T18:18:44.745Z,22.00
2022-11-10T18:21:14.008Z,22.30
2022-11-10T18:23:44.295Z,22.80
2022-11-10T18:26:12.776Z,21.50
2022-11-10T18:28:42.127Z,22.50
2022-11-10T18:31:13.721Z,21.80
2022-11-10T18:33:42.037Z,22.30
2022-11-10T18:36:11.268Z,22.40
2022-11-10T18:38:39.366Z,21.80
2022-11-10T18:41:22.062Z,21.80
2022-11-10T18:43:50.176Z,22.00
2022-11-10T18:46:19.685Z,21.70
2022-11-10T18:48:47.806Z,22.10
2022-11-10T18:51:16.319Z,21.50
2022-11-10T18:53:44.545Z,22.10
2022-11-10T18:56:14.341Z,21.30
2022-11-10T18:58:42.613Z,21.40
2022-11-10T19:01:11.989Z,21.70
2022-11-10T19:03:42.740Z,21.30
2022-11-10T19:06:11.792Z,21.60
2022-11-10T19:08:40.127Z,21.40
2022-11-10T19:11:09.687Z,21.70
2022-11-10T19:13:38.099Z,21.20
2022-11-10T19:16:07.716Z,20.80
2022-11-10T19:18:35.857Z,21.40
2022-11-10T19:21:07.622Z,20.70
2022-11-10T19:23:35.942Z,20.90
2022-11-10T19:26:05.154Z,21.20
2022-11-10T19:28:33.346Z,20.70
2022-11-10T19:31:02.451Z,21.10
2022-11-10T19:33:31.591Z,20.80
2022-11-10T19:36:03.775Z,21.00
2022-11-10T19:38:33.416Z,20.30
2022-11-10T19:41:05.649Z,20.80
2022-11-10T19:43:34.068Z,20.50
2022-11-10T19:46:06.380Z,20.80
2022-11-10T19:48:35.671Z,20.50
2022-11-10T19:51:05.816Z,20.30
2022-11-10T19:53:35.284Z,20.20
2022-11-10T19:56:05.230Z,20.60
2022-11-10T19:58:33.110Z,20.40
2022-11-10T20:01:02.043Z,21.10
2022-11-10T20:03:30.266Z,20.30
2022-11-10T20:06:00.017Z,20.60
2022-11-10T20:08:28.621Z,20.40
2022-11-10T20:11:00.539Z,20.50
2022-11-10T20:13:28.671Z,21.00
2022-11-10T20:15:56.771Z,20.40
2022-11-10T20:18:24.880Z,20.40
2022-11-10T20:20:52.941Z,20.20
2022-11-10T20:23:21.534Z,20.10
2022-11-10T20:25:49.861Z,20.50
2022-11-10T20:28:19.335Z,20.60
2022-11-10T20:30:47.418Z,20.70
2022-11-10T20:33:15.750Z,20.60
2022-11-10T20:35:44.615Z,20.40
2022-11-10T20:38:12.723Z,20.40
2022-11-10T20:40:44.990Z,20.80
2022-11-10T20:43:14.889Z,20.70
2022-11-10T20:45:44.362Z,19.90
2022-11-10T20:48:12.489Z,20.70
2022-11-10T20:50:41.821Z,20.20
2022-11-10T20:53:09.992Z,20.00
2022-11-10T20:55:53.652Z,20.10
2022-11-10T20:58:22.688Z,20.40
2022-11-10T21:00:52.553Z,20.20
2022-11-10T21:03:21.576Z,20.10
2022-11-10T21:05:55.618Z,20.20
2022-11-10T21:08:24.247Z,20.10
2022-11-10T21:10:53.448Z,20.00
2022-11-10T21:13:22.640Z,20.60
2022-11-10T21:15:54.379Z,20.30
2022-11-10T21:18:23.233Z,20.10
2022-11-10T21:20:51.668Z,20.20
2022-11-10T21:23:20.583Z,20.30
2022-11-10T21:28:22.200Z,20.40
2022-11-10T21:30:50.306Z,19.90
2022-11-10T21:33:20.109Z,19.40
2022-11-10T21:35:48.273Z,19.80
2022-11-10T21:38:16.797Z,19.90
2022-11-10T21:40:44.965Z,19.70
2022-11-10T21:43:13.090Z,19.50
2022-11-10T21:45:41.183Z,19.60
2022-11-10T21:48:10.131Z,19.70
2022-11-10T21:50:39.583Z,19.20
2022-11-10T21:53:09.113Z,20.10
2022-11-10T21:55:37.171Z,19.60
2022-11-10T21:58:05.299Z,19.40
2022-11-10T22:00:33.412Z,19.70
2022-11-10T22:03:03.572Z,19.50
2022-11-10T22:05:31.633Z,19.60
2022-11-10T22:08:01.117Z,19.00
2022-11-10T22:10:46.400Z,19.70
2022-11-10T22:13:34.116Z,19.50
2022-11-10T22:16:19.618Z,19.20
2022-11-10T22:18:47.863Z,19.40
2022-11-10T22:21:15.918Z,19.50
2022-11-10T22:24:02.800Z,19.40
2022-11-10T22:26:30.868Z,19.40
2022-11-10T22:28:58.969Z,19.50
2022-11-10T22:31:27.038Z,19.60
2022-11-10T22:33:55.122Z,19.50
2022-11-10T22:36:23.226Z,19.30
2022-11-10T22:38:52.689Z,19.40
2022-11-10T22:41:37.960Z,19.10
2022-11-10T22:44:06.468Z,19.30
2022-11-10T22:46:36.352Z,19.20
2022-11-10T22:49:07.541Z,19.30
2022-11-10T22:51:36.663Z,18.70
2022-11-10T22:54:07.407Z,19.40
2022-11-10T22:56:35.541Z,19.20
2022-11-10T22:59:04.198Z,19.20
2022-11-10T23:01:32.871Z,19.30
2022-11-10T23:04:02.070Z,19.20
2022-11-10T23:06:31.023Z,19.50
2022-11-10T23:08:59.953Z,19.20
2022-11-10T23:11:31.046Z,19.10
2022-11-10T23:13:59.412Z,19.10
2022-11-10T23:16:29.138Z,19.60
2022-11-10T23:18:59.078Z,19.10
2022-11-10T23:21:29.708Z,19.00
2022-11-10T23:23:57.837Z,19.20
2022-11-10T23:26:29.997Z,19.10
2022-11-10T23:28:59.458Z,19.00
2022-11-10T23:31:28.966Z,18.80
2022-11-10T23:33:57.920Z,19.10
2022-11-10T23:36:27.416Z,19.00
2022-11-10T23:38:56.210Z,19.00
2022-11-10T23:41:26.134Z,18.80
2022-11-10T23:43:54.065Z,19.00
2022-11-10T23:46:23.539Z,19.00
2022-11-10T23:48:51.779Z,18.90
2022-11-10T23:51:20.070Z,19.20
2022-11-10T23:53:48.201Z,19.00
2022-11-10T23:56:17.699Z,18.90
2022-11-10T23:58:45.779Z,18.90
